sensor_id;sensor_type;location;lat;lon;timestamp;P1;durP1;ratioP1;P2;durP2;ratioP2
3491;SDS011;1760;52.480;13.422;2023-08-07T00:01:39;6.17;;;2.10;;
3491;SDS011;1760;52.480;13.422;2023-08-07T00:04:06;2.67;;;2.40;;
3491;SDS011;1760;52.480;13.422;2023-08-07T00:06:34;4.27;;;2.10;;
3491;SDS011;1760;52.480;13.422;2023-08-07T00:09:01;3.17;;;2.70;;
3491;SDS011;1760;52.480;13.422;2023-08-07T00:11:29;3.80;;;2.50;;
3491;SDS011;1760;52.480;13.422;2023-08-07T00:13:56;6.07;;;2.70;;
3491;SDS011;1760;52.480;13.422;2023-08-07T00:16:23;4.10;;;2.50;;
3491;SDS011;1760;52.480;13.422;2023-08-07T00:18:50;3.13;;;2.47;;
3491;SDS011;1760;52.480;13.422;2023-08-07T00:21:21;3.80;;;2.43;;
3491;SDS011;1760;52.480;13.422;2023-08-07T00:23:49;5.80;;;2.70;;
3491;SDS011;1760;52.480;13.422;2023-08-07T00:26:16;3.10;;;2.43;;
3491;SDS011;1760;52.480;13.422;2023-08-07T00:28:43;2.30;;;2.10;;
3491;SDS011;1760;52.480;13.422;2023-08-07T00:31:10;3.73;;;2.77;;
3491;SDS011;1760;52.480;13.422;2023-08-07T00:33:37;4.60;;;3.07;;
3491;SDS011;1760;52.480;13.422;2023-08-07T00:36:04;2.80;;;2.50;;
3491;SDS011;1760;52.480;13.422;2023-08-07T00:38:31;3.03;;;2.50;;
3491;SDS011;1760;52.480;13.422;2023-08-07T00:40:59;4.63;;;3.10;;
3491;SDS011;1760;52.480;13.422;2023-08-07T00:43:26;19.03;;;10.87;;
3491;SDS011;1760;52.480;13.422;2023-08-07T00:45:53;5.77;;;3.90;;
3491;SDS011;1760;52.480;13.422;2023-08-07T00:48:20;3.10;;;2.70;;
3491;SDS011;1760;52.480;13.422;2023-08-07T00:50:47;8.17;;;4.17;;
3491;SDS011;1760;52.480;13.422;2023-08-07T00:53:15;3.57;;;2.80;;
3491;SDS011;1760;52.480;13.422;2023-08-07T00:55:42;3.30;;;2.90;;
3491;SDS011;1760;52.480;13.422;2023-08-07T01:00:52;9.90;;;3.30;;
3491;SDS011;1760;52.480;13.422;2023-08-07T01:03:20;4.40;;;3.10;;
3491;SDS011;1760;52.480;13.422;2023-08-07T01:05:47;7.07;;;4.20;;
3491;SDS011;1760;52.480;13.422;2023-08-07T01:08:14;4.57;;;3.47;;
3491;SDS011;1760;52.480;13.422;2023-08-07T01:10:46;3.80;;;3.40;;
3491;SDS011;1760;52.480;13.422;2023-08-07T01:13:31;3.30;;;3.00;;
3491;SDS011;1760;52.480;13.422;2023-08-07T01:16:11;5.10;;;2.80;;
3491;SDS011;1760;52.480;13.422;2023-08-07T01:18:44;3.30;;;2.70;;
3491;SDS011;1760;52.480;13.422;2023-08-07T01:21:17;6.87;;;2.80;;
3491;SDS011;1760;52.480;13.422;2023-08-07T01:23:46;3.50;;;2.83;;
3491;SDS011;1760;52.480;13.422;2023-08-07T01:26:13;5.33;;;3.10;;
3491;SDS011;1760;52.480;13.422;2023-08-07T01:28:41;3.63;;;2.80;;
3491;SDS011;1760;52.480;13.422;2023-08-07T01:31:14;2.90;;;2.60;;
3491;SDS011;1760;52.480;13.422;2023-08-07T01:33:43;4.23;;;3.10;;
3491;SDS011;1760;52.480;13.422;2023-08-07T01:36:16;4.70;;;3.27;;
3491;SDS011;1760;52.480;13.422;2023-08-07T01:38:43;2.60;;;2.30;;
3491;SDS011;1760;52.480;13.422;2023-08-07T01:41:14;4.17;;;3.17;;
3491;SDS011;1760;52.480;13.422;2023-08-07T01:43:41;4.10;;;2.90;;
3491;SDS011;1760;52.480;13.422;2023-08-07T01:46:08;4.37;;;2.90;;
3491;SDS011;1760;52.480;13.422;2023-08-07T01:48:36;3.70;;;3.00;;
3491;SDS011;1760;52.480;13.422;2023-08-07T01:51:03;4.90;;;3.20;;
3491;SDS011;1760;52.480;13.422;2023-08-07T01:53:30;5.57;;;3.60;;
3491;SDS011;1760;52.480;13.422;2023-08-07T01:55:58;6.27;;;3.00;;
3491;SDS011;1760;52.480;13.422;2023-08-07T01:58:25;3.20;;;2.90;;
3491;SDS011;1760;52.480;13.422;2023-08-07T02:00:52;3.93;;;3.27;;
3491;SDS011;1760;52.480;13.422;2023-08-07T02:03:19;7.53;;;2.97;;
3491;SDS011;1760;52.480;13.422;2023-08-07T02:05:46;10.63;;;3.83;;
3491;SDS011;1760;52.480;13.422;2023-08-07T02:08:13;5.63;;;3.80;;
3491;SDS011;1760;52.480;13.422;2023-08-07T02:10:40;3.20;;;2.67;;
3491;SDS011;1760;52.480;13.422;2023-08-07T02:13:09;5.93;;;3.30;;
3491;SDS011;1760;52.480;13.422;2023-08-07T02:15:37;5.90;;;3.23;;
3491;SDS011;1760;52.480;13.422;2023-08-07T02:18:04;11.40;;;4.60;;
3491;SDS011;1760;52.480;13.422;2023-08-07T02:20:30;5.67;;;3.60;;
3491;SDS011;1760;52.480;13.422;2023-08-07T02:23:00;7.60;;;4.07;;
3491;SDS011;1760;52.480;13.422;2023-08-07T02:25:27;7.13;;;3.30;;
3491;SDS011;1760;52.480;13.422;2023-08-07T02:27:54;10.07;;;4.10;;
3491;SDS011;1760;52.480;13.422;2023-08-07T02:30:22;3.90;;;3.40;;
3491;SDS011;1760;52.480;13.422;2023-08-07T02:32:49;6.43;;;3.70;;
3491;SDS011;1760;52.480;13.422;2023-08-07T02:35:16;4.57;;;3.20;;
3491;SDS011;1760;52.480;13.422;2023-08-07T02:37:43;5.53;;;4.20;;
3491;SDS011;1760;52.480;13.422;2023-08-07T02:40:12;5.53;;;4.00;;
3491;SDS011;1760;52.480;13.422;2023-08-07T02:42:40;8.63;;;3.70;;
3491;SDS011;1760;52.480;13.422;2023-08-07T02:45:09;9.80;;;4.40;;
3491;SDS011;1760;52.480;13.422;2023-08-07T02:47:38;5.60;;;3.60;;
3491;SDS011;1760;52.480;13.422;2023-08-07T02:50:05;4.10;;;3.50;;
3491;SDS011;1760;52.480;13.422;2023-08-07T02:52:32;3.50;;;3.20;;
3491;SDS011;1760;52.480;13.422;2023-08-07T02:55:01;5.53;;;3.97;;
3491;SDS011;1760;52.480;13.422;2023-08-07T02:57:27;5.70;;;4.07;;
3491;SDS011;1760;52.480;13.422;2023-08-07T02:59:55;5.57;;;3.57;;
3491;SDS011;1760;52.480;13.422;2023-08-07T03:02:21;6.67;;;4.03;;
3491;SDS011;1760;52.480;13.422;2023-08-07T03:04:50;7.23;;;3.70;;
3491;SDS011;1760;52.480;13.422;2023-08-07T03:07:17;7.77;;;4.47;;
3491;SDS011;1760;52.480;13.422;2023-08-07T03:09:45;6.20;;;3.90;;
3491;SDS011;1760;52.480;13.422;2023-08-07T03:12:12;8.37;;;4.27;;
3491;SDS011;1760;52.480;13.422;2023-08-07T03:14:39;6.13;;;4.10;;
3491;SDS011;1760;52.480;13.422;2023-08-07T03:17:06;6.33;;;4.57;;
3491;SDS011;1760;52.480;13.422;2023-08-07T03:19:33;6.90;;;3.83;;
3491;SDS011;1760;52.480;13.422;2023-08-07T03:22:01;5.03;;;4.47;;
3491;SDS011;1760;52.480;13.422;2023-08-07T03:24:28;7.73;;;4.70;;
3491;SDS011;1760;52.480;13.422;2023-08-07T03:26:55;6.83;;;4.47;;
3491;SDS011;1760;52.480;13.422;2023-08-07T03:29:22;5.33;;;4.30;;
3491;SDS011;1760;52.480;13.422;2023-08-07T03:31:49;8.30;;;4.73;;
3491;SDS011;1760;52.480;13.422;2023-08-07T03:34:15;7.53;;;4.50;;
3491;SDS011;1760;52.480;13.422;2023-08-07T03:36:42;9.33;;;5.00;;
3491;SDS011;1760;52.480;13.422;2023-08-07T03:39:10;5.77;;;4.43;;
3491;SDS011;1760;52.480;13.422;2023-08-07T03:41:38;6.13;;;4.20;;
3491;SDS011;1760;52.480;13.422;2023-08-07T03:44:05;5.13;;;4.20;;
3491;SDS011;1760;52.480;13.422;2023-08-07T03:46:32;9.67;;;5.53;;
3491;SDS011;1760;52.480;13.422;2023-08-07T03:48:59;7.63;;;4.80;;
3491;SDS011;1760;52.480;13.422;2023-08-07T03:51:26;9.20;;;5.37;;
3491;SDS011;1760;52.480;13.422;2023-08-07T03:53:54;8.23;;;5.10;;
3491;SDS011;1760;52.480;13.422;2023-08-07T03:56:24;9.70;;;5.13;;
3491;SDS011;1760;52.480;13.422;2023-08-07T03:58:51;9.83;;;5.27;;
3491;SDS011;1760;52.480;13.422;2023-08-07T04:01:17;6.03;;;4.17;;
3491;SDS011;1760;52.480;13.422;2023-08-07T04:03:47;6.47;;;4.40;;
3491;SDS011;1760;52.480;13.422;2023-08-07T04:06:14;7.63;;;5.03;;
3491;SDS011;1760;52.480;13.422;2023-08-07T04:08:41;11.10;;;5.23;;
3491;SDS011;1760;52.480;13.422;2023-08-07T04:11:08;9.83;;;3.93;;
3491;SDS011;1760;52.480;13.422;2023-08-07T04:13:37;4.63;;;4.20;;
3491;SDS011;1760;52.480;13.422;2023-08-07T04:16:04;5.47;;;4.70;;
3491;SDS011;1760;52.480;13.422;2023-08-07T04:18:31;8.10;;;4.53;;
3491;SDS011;1760;52.480;13.422;2023-08-07T04:20:58;5.60;;;4.07;;
3491;SDS011;1760;52.480;13.422;2023-08-07T04:23:25;7.53;;;4.40;;
3491;SDS011;1760;52.480;13.422;2023-08-07T04:25:53;6.53;;;4.90;;
3491;SDS011;1760;52.480;13.422;2023-08-07T04:28:20;10.70;;;4.63;;
3491;SDS011;1760;52.480;13.422;2023-08-07T04:30:50;5.47;;;3.77;;
3491;SDS011;1760;52.480;13.422;2023-08-07T04:33:17;7.47;;;4.10;;
3491;SDS011;1760;52.480;13.422;2023-08-07T04:35:47;4.20;;;3.77;;
3491;SDS011;1760;52.480;13.422;2023-08-07T04:38:16;4.27;;;3.67;;
3491;SDS011;1760;52.480;13.422;2023-08-07T04:40:45;5.63;;;3.37;;
3491;SDS011;1760;52.480;13.422;2023-08-07T04:43:12;7.10;;;3.53;;
3491;SDS011;1760;52.480;13.422;2023-08-07T04:45:39;7.73;;;3.90;;
3491;SDS011;1760;52.480;13.422;2023-08-07T04:48:08;6.00;;;3.97;;
3491;SDS011;1760;52.480;13.422;2023-08-07T04:50:35;5.17;;;4.00;;
3491;SDS011;1760;52.480;13.422;2023-08-07T04:53:02;6.50;;;4.40;;
3491;SDS011;1760;52.480;13.422;2023-08-07T04:55:29;4.73;;;4.00;;
3491;SDS011;1760;52.480;13.422;2023-08-07T04:57:56;8.03;;;3.60;;
3491;SDS011;1760;52.480;13.422;2023-08-07T05:00:24;6.10;;;3.70;;
3491;SDS011;1760;52.480;13.422;2023-08-07T05:02:51;6.53;;;3.37;;
3491;SDS011;1760;52.480;13.422;2023-08-07T05:05:19;5.90;;;3.10;;
3491;SDS011;1760;52.480;13.422;2023-08-07T05:07:47;4.83;;;2.90;;
3491;SDS011;1760;52.480;13.422;2023-08-07T05:10:13;5.70;;;3.77;;
3491;SDS011;1760;52.480;13.422;2023-08-07T05:12:40;5.03;;;3.30;;
3491;SDS011;1760;52.480;13.422;2023-08-07T05:15:08;5.70;;;3.10;;
3491;SDS011;1760;52.480;13.422;2023-08-07T05:17:35;6.87;;;3.87;;
3491;SDS011;1760;52.480;13.422;2023-08-07T05:20:02;3.07;;;2.57;;
3491;SDS011;1760;52.480;13.422;2023-08-07T05:22:31;5.97;;;2.90;;
3491;SDS011;1760;52.480;13.422;2023-08-07T05:24:58;8.53;;;2.90;;
3491;SDS011;1760;52.480;13.422;2023-08-07T05:27:25;5.67;;;3.20;;
3491;SDS011;1760;52.480;13.422;2023-08-07T05:29:52;5.53;;;3.17;;
3491;SDS011;1760;52.480;13.422;2023-08-07T05:32:19;2.90;;;2.63;;
3491;SDS011;1760;52.480;13.422;2023-08-07T05:34:46;2.87;;;2.40;;
3491;SDS011;1760;52.480;13.422;2023-08-07T05:37:13;4.53;;;3.33;;
3491;SDS011;1760;52.480;13.422;2023-08-07T05:39:41;3.73;;;2.60;;
3491;SDS011;1760;52.480;13.422;2023-08-07T05:42:08;5.53;;;3.50;;
3491;SDS011;1760;52.480;13.422;2023-08-07T05:44:35;7.73;;;3.40;;
3491;SDS011;1760;52.480;13.422;2023-08-07T05:47:02;5.30;;;3.37;;
3491;SDS011;1760;52.480;13.422;2023-08-07T05:49:29;3.73;;;2.73;;
3491;SDS011;1760;52.480;13.422;2023-08-07T05:51:56;5.27;;;3.17;;
3491;SDS011;1760;52.480;13.422;2023-08-07T05:54:23;4.50;;;3.23;;
3491;SDS011;1760;52.480;13.422;2023-08-07T05:56:51;3.40;;;3.03;;
3491;SDS011;1760;52.480;13.422;2023-08-07T05:59:18;5.90;;;3.10;;
3491;SDS011;1760;52.480;13.422;2023-08-07T06:01:45;6.23;;;3.73;;
3491;SDS011;1760;52.480;13.422;2023-08-07T06:04:12;2.70;;;2.50;;
3491;SDS011;1760;52.480;13.422;2023-08-07T06:06:41;4.17;;;3.23;;
3491;SDS011;1760;52.480;13.422;2023-08-07T06:09:08;4.10;;;3.57;;
3491;SDS011;1760;52.480;13.422;2023-08-07T06:11:36;4.40;;;3.13;;
3491;SDS011;1760;52.480;13.422;2023-08-07T06:14:04;5.50;;;3.57;;
3491;SDS011;1760;52.480;13.422;2023-08-07T06:16:31;8.07;;;3.00;;
3491;SDS011;1760;52.480;13.422;2023-08-07T06:18:58;7.93;;;3.27;;
3491;SDS011;1760;52.480;13.422;2023-08-07T06:21:25;5.10;;;3.23;;
3491;SDS011;1760;52.480;13.422;2023-08-07T06:23:53;2.80;;;2.50;;
3491;SDS011;1760;52.480;13.422;2023-08-07T06:26:20;3.60;;;2.60;;
3491;SDS011;1760;52.480;13.422;2023-08-07T06:28:47;4.70;;;2.60;;
3491;SDS011;1760;52.480;13.422;2023-08-07T06:31:15;3.67;;;2.77;;
3491;SDS011;1760;52.480;13.422;2023-08-07T06:33:42;6.73;;;3.20;;
3491;SDS011;1760;52.480;13.422;2023-08-07T06:36:13;7.63;;;3.10;;
3491;SDS011;1760;52.480;13.422;2023-08-07T06:38:39;3.77;;;2.60;;
3491;SDS011;1760;52.480;13.422;2023-08-07T06:41:06;2.77;;;2.33;;
3491;SDS011;1760;52.480;13.422;2023-08-07T06:43:33;2.97;;;2.40;;
3491;SDS011;1760;52.480;13.422;2023-08-07T06:46:00;3.43;;;2.17;;
3491;SDS011;1760;52.480;13.422;2023-08-07T06:48:28;3.60;;;2.47;;
3491;SDS011;1760;52.480;13.422;2023-08-07T06:50:55;4.40;;;2.30;;
3491;SDS011;1760;52.480;13.422;2023-08-07T06:53:22;4.20;;;2.40;;
3491;SDS011;1760;52.480;13.422;2023-08-07T06:55:51;4.20;;;2.60;;
3491;SDS011;1760;52.480;13.422;2023-08-07T06:58:18;4.80;;;2.47;;
3491;SDS011;1760;52.480;13.422;2023-08-07T07:00:45;3.83;;;2.60;;
3491;SDS011;1760;52.480;13.422;2023-08-07T07:03:12;8.27;;;2.80;;
3491;SDS011;1760;52.480;13.422;2023-08-07T07:05:40;2.43;;;2.23;;
3491;SDS011;1760;52.480;13.422;2023-08-07T07:08:08;5.37;;;2.20;;
3491;SDS011;1760;52.480;13.422;2023-08-07T07:10:37;3.57;;;2.23;;
3491;SDS011;1760;52.480;13.422;2023-08-07T07:13:04;5.30;;;2.27;;
3491;SDS011;1760;52.480;13.422;2023-08-07T07:15:34;3.87;;;2.37;;
3491;SDS011;1760;52.480;13.422;2023-08-07T07:18:01;2.93;;;2.00;;
3491;SDS011;1760;52.480;13.422;2023-08-07T07:20:29;4.40;;;2.40;;
3491;SDS011;1760;52.480;13.422;2023-08-07T07:22:57;2.73;;;1.97;;
3491;SDS011;1760;52.480;13.422;2023-08-07T07:25:24;4.30;;;2.37;;
3491;SDS011;1760;52.480;13.422;2023-08-07T07:27:51;2.43;;;2.17;;
3491;SDS011;1760;52.480;13.422;2023-08-07T07:30:17;3.80;;;3.30;;
3491;SDS011;1760;52.480;13.422;2023-08-07T07:32:45;1.93;;;1.73;;
3491;SDS011;1760;52.480;13.422;2023-08-07T07:35:12;16.87;;;5.20;;
3491;SDS011;1760;52.480;13.422;2023-08-07T07:37:39;2.40;;;1.80;;
3491;SDS011;1760;52.480;13.422;2023-08-07T07:40:09;3.50;;;2.40;;
3491;SDS011;1760;52.480;13.422;2023-08-07T07:42:36;4.70;;;2.00;;
3491;SDS011;1760;52.480;13.422;2023-08-07T07:45:03;5.07;;;2.37;;
3491;SDS011;1760;52.480;13.422;2023-08-07T07:47:31;4.73;;;2.27;;
3491;SDS011;1760;52.480;13.422;2023-08-07T07:50:05;2.77;;;2.00;;
3491;SDS011;1760;52.480;13.422;2023-08-07T07:52:33;2.30;;;1.70;;
3491;SDS011;1760;52.480;13.422;2023-08-07T07:55:00;8.43;;;3.87;;
3491;SDS011;1760;52.480;13.422;2023-08-07T07:57:29;2.50;;;2.20;;
3491;SDS011;1760;52.480;13.422;2023-08-07T07:59:56;2.70;;;2.30;;
3491;SDS011;1760;52.480;13.422;2023-08-07T08:02:22;3.03;;;2.53;;
3491;SDS011;1760;52.480;13.422;2023-08-07T08:04:50;3.50;;;1.63;;
3491;SDS011;1760;52.480;13.422;2023-08-07T08:07:17;5.43;;;2.00;;
3491;SDS011;1760;52.480;13.422;2023-08-07T08:09:44;1.97;;;1.80;;
3491;SDS011;1760;52.480;13.422;2023-08-07T08:12:12;3.40;;;2.17;;
3491;SDS011;1760;52.480;13.422;2023-08-07T08:14:40;3.33;;;2.00;;
3491;SDS011;1760;52.480;13.422;2023-08-07T08:17:07;2.83;;;1.87;;
3491;SDS011;1760;52.480;13.422;2023-08-07T08:19:34;2.13;;;1.80;;
3491;SDS011;1760;52.480;13.422;2023-08-07T08:22:01;2.90;;;2.10;;
3491;SDS011;1760;52.480;13.422;2023-08-07T08:24:28;6.50;;;2.20;;
3491;SDS011;1760;52.480;13.422;2023-08-07T08:27:00;3.73;;;2.10;;
3491;SDS011;1760;52.480;13.422;2023-08-07T08:29:27;6.93;;;3.50;;
3491;SDS011;1760;52.480;13.422;2023-08-07T08:31:55;2.60;;;2.00;;
3491;SDS011;1760;52.480;13.422;2023-08-07T08:34:22;2.60;;;2.23;;
3491;SDS011;1760;52.480;13.422;2023-08-07T08:36:51;3.67;;;2.60;;
3491;SDS011;1760;52.480;13.422;2023-08-07T08:39:18;3.20;;;2.17;;
3491;SDS011;1760;52.480;13.422;2023-08-07T08:41:46;3.30;;;1.97;;
3491;SDS011;1760;52.480;13.422;2023-08-07T08:44:14;3.67;;;2.80;;
3491;SDS011;1760;52.480;13.422;2023-08-07T08:46:42;10.33;;;2.60;;
3491;SDS011;1760;52.480;13.422;2023-08-07T08:49:11;3.23;;;2.73;;
3491;SDS011;1760;52.480;13.422;2023-08-07T08:51:54;2.90;;;2.50;;
3491;SDS011;1760;52.480;13.422;2023-08-07T08:54:21;3.30;;;2.10;;
3491;SDS011;1760;52.480;13.422;2023-08-07T08:56:48;29.80;;;8.77;;
3491;SDS011;1760;52.480;13.422;2023-08-07T08:59:20;6.00;;;2.90;;
3491;SDS011;1760;52.480;13.422;2023-08-07T09:01:47;5.53;;;2.03;;
3491;SDS011;1760;52.480;13.422;2023-08-07T09:04:18;2.13;;;1.93;;
3491;SDS011;1760;52.480;13.422;2023-08-07T09:06:45;2.40;;;2.20;;
3491;SDS011;1760;52.480;13.422;2023-08-07T09:09:13;3.20;;;2.30;;
3491;SDS011;1760;52.480;13.422;2023-08-07T09:11:41;2.23;;;1.67;;
3491;SDS011;1760;52.480;13.422;2023-08-07T09:14:09;6.70;;;2.17;;
3491;SDS011;1760;52.480;13.422;2023-08-07T09:16:38;3.50;;;2.00;;
3491;SDS011;1760;52.480;13.422;2023-08-07T09:19:06;5.17;;;2.27;;
3491;SDS011;1760;52.480;13.422;2023-08-07T09:21:34;2.53;;;2.33;;
3491;SDS011;1760;52.480;13.422;2023-08-07T09:24:00;2.20;;;2.00;;
3491;SDS011;1760;52.480;13.422;2023-08-07T09:26:28;2.60;;;2.20;;
3491;SDS011;1760;52.480;13.422;2023-08-07T09:28:55;5.60;;;2.00;;
3491;SDS011;1760;52.480;13.422;2023-08-07T09:31:24;5.43;;;2.37;;
3491;SDS011;1760;52.480;13.422;2023-08-07T09:34:00;2.10;;;1.90;;
3491;SDS011;1760;52.480;13.422;2023-08-07T09:36:29;4.30;;;2.37;;
3491;SDS011;1760;52.480;13.422;2023-08-07T09:38:59;3.27;;;2.10;;
3491;SDS011;1760;52.480;13.422;2023-08-07T09:41:27;2.43;;;2.07;;
3491;SDS011;1760;52.480;13.422;2023-08-07T09:43:55;2.70;;;2.23;;
3491;SDS011;1760;52.480;13.422;2023-08-07T09:46:22;2.63;;;2.00;;
3491;SDS011;1760;52.480;13.422;2023-08-07T09:48:51;1.90;;;1.70;;
3491;SDS011;1760;52.480;13.422;2023-08-07T09:51:18;2.03;;;1.70;;
3491;SDS011;1760;52.480;13.422;2023-08-07T09:53:46;2.00;;;1.50;;
3491;SDS011;1760;52.480;13.422;2023-08-07T09:56:15;3.83;;;1.90;;
3491;SDS011;1760;52.480;13.422;2023-08-07T09:58:46;3.43;;;2.00;;
3491;SDS011;1760;52.480;13.422;2023-08-07T10:01:16;2.77;;;2.03;;
3491;SDS011;1760;52.480;13.422;2023-08-07T10:03:43;5.90;;;2.10;;
3491;SDS011;1760;52.480;13.422;2023-08-07T10:06:13;2.63;;;1.70;;
3491;SDS011;1760;52.480;13.422;2023-08-07T10:08:40;2.50;;;1.93;;
3491;SDS011;1760;52.480;13.422;2023-08-07T10:11:09;2.27;;;1.77;;
3491;SDS011;1760;52.480;13.422;2023-08-07T10:13:38;8.23;;;1.90;;
3491;SDS011;1760;52.480;13.422;2023-08-07T10:16:05;4.97;;;1.83;;
3491;SDS011;1760;52.480;13.422;2023-08-07T10:18:32;2.33;;;2.03;;
3491;SDS011;1760;52.480;13.422;2023-08-07T10:21:01;1.97;;;1.77;;
3491;SDS011;1760;52.480;13.422;2023-08-07T10:23:28;2.90;;;1.60;;
3491;SDS011;1760;52.480;13.422;2023-08-07T10:25:57;1.80;;;1.50;;
3491;SDS011;1760;52.480;13.422;2023-08-07T10:28:25;2.50;;;1.83;;
3491;SDS011;1760;52.480;13.422;2023-08-07T10:30:54;2.67;;;1.97;;
3491;SDS011;1760;52.480;13.422;2023-08-07T10:33:22;1.70;;;1.50;;
3491;SDS011;1760;52.480;13.422;2023-08-07T10:35:52;4.60;;;2.07;;
3491;SDS011;1760;52.480;13.422;2023-08-07T10:38:19;4.07;;;1.67;;
3491;SDS011;1760;52.480;13.422;2023-08-07T10:40:58;1.60;;;1.40;;
3491;SDS011;1760;52.480;13.422;2023-08-07T10:43:25;3.40;;;1.70;;
3491;SDS011;1760;52.480;13.422;2023-08-07T10:46:04;3.23;;;2.03;;
3491;SDS011;1760;52.480;13.422;2023-08-07T10:48:37;2.53;;;1.60;;
3491;SDS011;1760;52.480;13.422;2023-08-07T10:51:05;4.50;;;1.50;;
3491;SDS011;1760;52.480;13.422;2023-08-07T10:53:33;6.50;;;3.03;;
3491;SDS011;1760;52.480;13.422;2023-08-07T10:56:02;2.27;;;1.60;;
3491;SDS011;1760;52.480;13.422;2023-08-07T10:58:30;2.00;;;1.53;;
3491;SDS011;1760;52.480;13.422;2023-08-07T11:01:21;8.17;;;2.03;;
3491;SDS011;1760;52.480;13.422;2023-08-07T11:03:54;2.37;;;2.00;;
3491;SDS011;1760;52.480;13.422;2023-08-07T11:06:22;2.97;;;1.40;;
3491;SDS011;1760;52.480;13.422;2023-08-07T11:08:51;4.40;;;1.60;;
3491;SDS011;1760;52.480;13.422;2023-08-07T11:11:18;2.83;;;1.27;;
3491;SDS011;1760;52.480;13.422;2023-08-07T11:13:46;3.73;;;1.60;;
3491;SDS011;1760;52.480;13.422;2023-08-07T11:16:13;2.93;;;1.80;;
3491;SDS011;1760;52.480;13.422;2023-08-07T11:18:41;2.13;;;1.43;;
3491;SDS011;1760;52.480;13.422;2023-08-07T11:21:09;2.40;;;1.60;;
3491;SDS011;1760;52.480;13.422;2023-08-07T11:23:36;3.10;;;2.23;;
3491;SDS011;1760;52.480;13.422;2023-08-07T11:26:03;2.87;;;1.90;;
3491;SDS011;1760;52.480;13.422;2023-08-07T11:28:31;1.93;;;1.67;;
3491;SDS011;1760;52.480;13.422;2023-08-07T11:30:59;2.77;;;1.90;;
3491;SDS011;1760;52.480;13.422;2023-08-07T11:33:27;1.97;;;1.60;;
3491;SDS011;1760;52.480;13.422;2023-08-07T11:35:56;2.60;;;1.73;;
3491;SDS011;1760;52.480;13.422;2023-08-07T11:38:30;2.40;;;1.30;;
3491;SDS011;1760;52.480;13.422;2023-08-07T11:40:58;3.80;;;1.80;;
3491;SDS011;1760;52.480;13.422;2023-08-07T11:43:29;4.80;;;1.83;;
3491;SDS011;1760;52.480;13.422;2023-08-07T11:46:00;4.70;;;2.67;;
3491;SDS011;1760;52.480;13.422;2023-08-07T11:48:28;3.10;;;1.90;;
3491;SDS011;1760;52.480;13.422;2023-08-07T11:50:58;4.70;;;2.30;;
3491;SDS011;1760;52.480;13.422;2023-08-07T11:53:26;4.13;;;2.50;;
3491;SDS011;1760;52.480;13.422;2023-08-07T11:55:55;2.60;;;1.77;;
3491;SDS011;1760;52.480;13.422;2023-08-07T11:58:24;2.67;;;1.70;;
3491;SDS011;1760;52.480;13.422;2023-08-07T12:00:52;9.73;;;1.93;;
3491;SDS011;1760;52.480;13.422;2023-08-07T12:03:23;4.23;;;1.90;;
3491;SDS011;1760;52.480;13.422;2023-08-07T12:05:51;2.50;;;1.57;;
3491;SDS011;1760;52.480;13.422;2023-08-07T12:08:20;4.30;;;1.90;;
3491;SDS011;1760;52.480;13.422;2023-08-07T12:10:50;2.17;;;1.90;;
3491;SDS011;1760;52.480;13.422;2023-08-07T12:13:19;2.97;;;1.90;;
3491;SDS011;1760;52.480;13.422;2023-08-07T12:15:50;2.30;;;1.60;;
3491;SDS011;1760;52.480;13.422;2023-08-07T12:18:19;1.97;;;1.60;;
3491;SDS011;1760;52.480;13.422;2023-08-07T12:20:47;4.37;;;3.43;;
3491;SDS011;1760;52.480;13.422;2023-08-07T12:23:17;3.20;;;1.90;;
3491;SDS011;1760;52.480;13.422;2023-08-07T12:25:48;2.53;;;1.57;;
3491;SDS011;1760;52.480;13.422;2023-08-07T12:28:15;4.83;;;2.27;;
3491;SDS011;1760;52.480;13.422;2023-08-07T12:30:42;2.10;;;1.83;;
3491;SDS011;1760;52.480;13.422;2023-08-07T12:33:12;3.10;;;1.80;;
3491;SDS011;1760;52.480;13.422;2023-08-07T12:35:39;4.30;;;1.90;;
3491;SDS011;1760;52.480;13.422;2023-08-07T12:38:06;4.70;;;1.83;;
3491;SDS011;1760;52.480;13.422;2023-08-07T12:40:34;2.70;;;2.13;;
3491;SDS011;1760;52.480;13.422;2023-08-07T12:43:03;3.17;;;1.70;;
3491;SDS011;1760;52.480;13.422;2023-08-07T12:45:30;4.60;;;1.43;;
3491;SDS011;1760;52.480;13.422;2023-08-07T12:47:57;2.83;;;1.40;;
3491;SDS011;1760;52.480;13.422;2023-08-07T12:50:24;2.67;;;1.50;;
3491;SDS011;1760;52.480;13.422;2023-08-07T12:52:54;4.83;;;1.90;;
3491;SDS011;1760;52.480;13.422;2023-08-07T12:55:21;3.23;;;2.20;;
3491;SDS011;1760;52.480;13.422;2023-08-07T12:57:48;2.70;;;2.03;;
3491;SDS011;1760;52.480;13.422;2023-08-07T13:00:16;3.20;;;1.87;;
3491;SDS011;1760;52.480;13.422;2023-08-07T13:02:44;3.93;;;1.97;;
3491;SDS011;1760;52.480;13.422;2023-08-07T13:05:12;4.90;;;2.00;;
3491;SDS011;1760;52.480;13.422;2023-08-07T13:07:39;4.83;;;2.23;;
3491;SDS011;1760;52.480;13.422;2023-08-07T13:10:07;7.10;;;3.10;;
3491;SDS011;1760;52.480;13.422;2023-08-07T13:12:40;8.00;;;3.60;;
3491;SDS011;1760;52.480;13.422;2023-08-07T13:15:08;2.83;;;2.07;;
3491;SDS011;1760;52.480;13.422;2023-08-07T13:17:39;2.07;;;1.70;;
3491;SDS011;1760;52.480;13.422;2023-08-07T13:20:06;5.57;;;2.50;;
3491;SDS011;1760;52.480;13.422;2023-08-07T13:22:34;8.17;;;2.30;;
3491;SDS011;1760;52.480;13.422;2023-08-07T13:25:01;14.30;;;2.73;;
3491;SDS011;1760;52.480;13.422;2023-08-07T13:27:29;5.73;;;2.20;;
3491;SDS011;1760;52.480;13.422;2023-08-07T13:29:56;10.00;;;3.20;;
3491;SDS011;1760;52.480;13.422;2023-08-07T13:32:23;6.47;;;3.20;;
3491;SDS011;1760;52.480;13.422;2023-08-07T13:34:52;5.00;;;1.90;;
3491;SDS011;1760;52.480;13.422;2023-08-07T13:37:19;3.60;;;2.73;;
3491;SDS011;1760;52.480;13.422;2023-08-07T13:39:46;5.13;;;2.07;;
3491;SDS011;1760;52.480;13.422;2023-08-07T13:42:15;7.50;;;1.53;;
3491;SDS011;1760;52.480;13.422;2023-08-07T13:44:42;3.00;;;1.70;;
3491;SDS011;1760;52.480;13.422;2023-08-07T13:47:10;5.30;;;2.17;;
3491;SDS011;1760;52.480;13.422;2023-08-07T13:49:37;5.37;;;2.37;;
3491;SDS011;1760;52.480;13.422;2023-08-07T13:52:05;7.73;;;2.00;;
3491;SDS011;1760;52.480;13.422;2023-08-07T13:54:33;10.33;;;2.30;;
3491;SDS011;1760;52.480;13.422;2023-08-07T13:57:00;2.70;;;2.00;;
3491;SDS011;1760;52.480;13.422;2023-08-07T13:59:29;7.10;;;2.27;;
3491;SDS011;1760;52.480;13.422;2023-08-07T14:01:56;6.30;;;2.00;;
3491;SDS011;1760;52.480;13.422;2023-08-07T14:04:24;7.10;;;1.80;;
3491;SDS011;1760;52.480;13.422;2023-08-07T14:06:51;3.07;;;2.00;;
3491;SDS011;1760;52.480;13.422;2023-08-07T14:09:19;3.67;;;1.83;;
3491;SDS011;1760;52.480;13.422;2023-08-07T14:11:47;5.60;;;3.07;;
3491;SDS011;1760;52.480;13.422;2023-08-07T14:14:14;5.13;;;3.23;;
3491;SDS011;1760;52.480;13.422;2023-08-07T14:16:41;6.47;;;2.70;;
3491;SDS011;1760;52.480;13.422;2023-08-07T14:19:08;8.83;;;2.07;;
3491;SDS011;1760;52.480;13.422;2023-08-07T14:21:35;5.23;;;2.93;;
3491;SDS011;1760;52.480;13.422;2023-08-07T14:24:02;4.00;;;1.93;;
3491;SDS011;1760;52.480;13.422;2023-08-07T14:26:31;7.30;;;3.60;;
3491;SDS011;1760;52.480;13.422;2023-08-07T14:28:58;5.80;;;2.50;;
3491;SDS011;1760;52.480;13.422;2023-08-07T14:31:25;3.57;;;1.90;;
3491;SDS011;1760;52.480;13.422;2023-08-07T14:33:52;2.80;;;1.67;;
3491;SDS011;1760;52.480;13.422;2023-08-07T14:36:19;2.90;;;1.60;;
3491;SDS011;1760;52.480;13.422;2023-08-07T14:38:46;10.80;;;1.83;;
3491;SDS011;1760;52.480;13.422;2023-08-07T14:41:13;7.57;;;2.00;;
3491;SDS011;1760;52.480;13.422;2023-08-07T14:43:44;4.57;;;1.63;;
3491;SDS011;1760;52.480;13.422;2023-08-07T14:46:12;4.00;;;1.77;;
3491;SDS011;1760;52.480;13.422;2023-08-07T14:48:39;2.90;;;1.60;;
3491;SDS011;1760;52.480;13.422;2023-08-07T14:51:07;5.87;;;1.87;;
3491;SDS011;1760;52.480;13.422;2023-08-07T14:53:36;3.23;;;1.80;;
3491;SDS011;1760;52.480;13.422;2023-08-07T14:56:03;3.10;;;1.83;;
3491;SDS011;1760;52.480;13.422;2023-08-07T14:58:30;9.43;;;2.40;;
3491;SDS011;1760;52.480;13.422;2023-08-07T15:00:59;5.33;;;2.50;;
3491;SDS011;1760;52.480;13.422;2023-08-07T15:03:26;5.03;;;2.00;;
3491;SDS011;1760;52.480;13.422;2023-08-07T15:05:53;3.10;;;2.03;;
3491;SDS011;1760;52.480;13.422;2023-08-07T15:08:22;4.97;;;1.87;;